RYR432 LEMH-LEIB
Flight info
| Callsign | RYR432 |
|---|---|
| Flight time | 0h 38m |
| Altitude | 23000 |
| Route | NEVIC |
| Aircraft | B38M/M-SDE1FGHILORVWXY/HB1 |
Departure
| Time | 2026-04-25 10:14 |
|---|---|
| Airport | Menorca Airport (LEMH) |
Arrival
| Time | 2026-04-25 10:52 |
|---|---|
| Airport | Ibiza Airport (LEIB) |
| Time | Latitude | Longitude | Altitude | Speed | Heading |
|---|---|---|---|---|---|
| 2026-04-25 09:51 | 39.86469 | 4.22394 | 289 ft | 0 kts | 99° |
| 2026-04-25 10:07 | 39.86472 | 4.22370 | 293 ft | 4 kts | 99° |
| 2026-04-25 10:07 | 39.86475 | 4.22342 | 293 ft | 4 kts | 90° |
| 2026-04-25 10:07 | 39.86469 | 4.22318 | 295 ft | 4 kts | 20° |
| 2026-04-25 10:08 | 39.86446 | 4.22313 | 293 ft | 3 kts | 9° |
| 2026-04-25 10:08 | 39.86441 | 4.22312 | 292 ft | 1 kts | 9° |
| 2026-04-25 10:10 | 39.86443 | 4.22312 | 293 ft | 2 kts | 9° |
| 2026-04-25 10:11 | 39.86491 | 4.22322 | 293 ft | 13 kts | 8° |
| 2026-04-25 10:11 | 39.86521 | 4.22316 | 291 ft | 7 kts | 321° |
| 2026-04-25 10:11 | 39.86533 | 4.22242 | 294 ft | 6 kts | 285° |
| 2026-04-25 10:11 | 39.86568 | 4.22169 | 302 ft | 9 kts | 345° |
| 2026-04-25 10:12 | 39.86677 | 4.22189 | 298 ft | 23 kts | 8° |
| 2026-04-25 10:12 | 39.86877 | 4.22230 | 303 ft | 36 kts | 9° |
| 2026-04-25 10:12 | 39.87400 | 4.22298 | 316 ft | 20 kts | 320° |
| 2026-04-25 10:13 | 39.87379 | 4.22146 | 313 ft | 24 kts | 244° |
| 2026-04-25 10:13 | 39.87310 | 4.22080 | 311 ft | 5 kts | 187° |
| 2026-04-25 10:13 | 39.87135 | 4.22045 | 307 ft | 64 kts | 188° |
| 2026-04-25 10:13 | 39.86415 | 4.21897 | 305 ft | 142 kts | 189° |
| 2026-04-25 10:14 | 39.85292 | 4.21646 | 639 ft | 180 kts | 189° |
| 2026-04-25 10:14 | 39.83997 | 4.21358 | 1385 ft | 186 kts | 185° |
| 2026-04-25 10:14 | 39.82698 | 4.21144 | 2419 ft | 191 kts | 184° |
| 2026-04-25 10:14 | 39.81341 | 4.20925 | 3252 ft | 203 kts | 185° |
| 2026-04-25 10:15 | 39.79887 | 4.20681 | 3924 ft | 219 kts | 186° |
| 2026-04-25 10:15 | 39.78342 | 4.20394 | 4606 ft | 235 kts | 191° |
| 2026-04-25 10:15 | 39.76778 | 4.19542 | 5216 ft | 255 kts | 216° |
| 2026-04-25 10:15 | 39.75673 | 4.17727 | 6084 ft | 258 kts | 246° |
| 2026-04-25 10:16 | 39.75328 | 4.15455 | 7050 ft | 259 kts | 274° |
| 2026-04-25 10:16 | 39.75546 | 4.13923 | 7593 ft | 261 kts | 287° |
| 2026-04-25 10:16 | 39.75916 | 4.11606 | 8439 ft | 265 kts | 269° |
| 2026-04-25 10:16 | 39.74959 | 4.08764 | 9595 ft | 267 kts | 223° |
| 2026-04-25 10:17 | 39.73989 | 4.07756 | 10123 ft | 271 kts | 217° |
| 2026-04-25 10:17 | 39.72593 | 4.06060 | 10821 ft | 276 kts | 232° |
| 2026-04-25 10:17 | 39.71370 | 4.04095 | 11566 ft | 284 kts | 232° |
| 2026-04-25 10:17 | 39.70088 | 4.02048 | 12069 ft | 300 kts | 232° |
| 2026-04-25 10:18 | 39.68734 | 3.99865 | 12482 ft | 319 kts | 232° |
| 2026-04-25 10:18 | 39.67323 | 3.97583 | 12876 ft | 337 kts | 232° |
| 2026-04-25 10:18 | 39.65818 | 3.95151 | 13335 ft | 352 kts | 232° |
| 2026-04-25 10:18 | 39.64267 | 3.92653 | 14082 ft | 355 kts | 232° |
| 2026-04-25 10:19 | 39.62705 | 3.90152 | 14795 ft | 360 kts | 232° |
| 2026-04-25 10:19 | 39.61112 | 3.87598 | 15452 ft | 364 kts | 232° |
| 2026-04-25 10:19 | 39.59510 | 3.85039 | 16128 ft | 368 kts | 232° |
| 2026-04-25 10:19 | 39.57888 | 3.82446 | 16775 ft | 372 kts | 232° |
| 2026-04-25 10:20 | 39.56242 | 3.79820 | 17419 ft | 376 kts | 232° |
| 2026-04-25 10:20 | 39.54605 | 3.77209 | 18041 ft | 380 kts | 232° |
| 2026-04-25 10:20 | 39.52922 | 3.74527 | 18636 ft | 384 kts | 232° |
| 2026-04-25 10:20 | 39.51223 | 3.71822 | 19192 ft | 387 kts | 232° |
| 2026-04-25 10:21 | 39.49517 | 3.69110 | 19753 ft | 389 kts | 232° |
| 2026-04-25 10:21 | 39.47816 | 3.66405 | 20292 ft | 392 kts | 232° |
| 2026-04-25 10:21 | 39.46083 | 3.63655 | 20848 ft | 395 kts | 232° |
| 2026-04-25 10:21 | 39.44337 | 3.60887 | 21378 ft | 398 kts | 232° |
| 2026-04-25 10:22 | 39.42578 | 3.58098 | 21906 ft | 401 kts | 232° |
| 2026-04-25 10:22 | 39.40823 | 3.55320 | 22440 ft | 403 kts | 232° |
| 2026-04-25 10:22 | 39.39043 | 3.52505 | 22983 ft | 406 kts | 232° |
| 2026-04-25 10:22 | 39.37245 | 3.49663 | 23153 ft | 409 kts | 232° |
| 2026-04-25 10:23 | 39.35437 | 3.46810 | 23140 ft | 409 kts | 232° |
| 2026-04-25 10:23 | 39.33703 | 3.43904 | 23138 ft | 407 kts | 240° |
| 2026-04-25 10:23 | 39.32606 | 3.40557 | 23158 ft | 404 kts | 255° |
| 2026-04-25 10:23 | 39.31797 | 3.37121 | 23143 ft | 405 kts | 254° |
| 2026-04-25 10:24 | 39.30961 | 3.33636 | 23155 ft | 405 kts | 254° |
| 2026-04-25 10:24 | 39.30139 | 3.30149 | 23146 ft | 404 kts | 254° |
| 2026-04-25 10:24 | 39.29328 | 3.26673 | 23148 ft | 404 kts | 254° |
| 2026-04-25 10:24 | 39.28517 | 3.23193 | 23152 ft | 404 kts | 254° |
| 2026-04-25 10:25 | 39.27715 | 3.19751 | 23148 ft | 405 kts | 254° |
| 2026-04-25 10:25 | 39.26905 | 3.16278 | 23143 ft | 404 kts | 254° |
| 2026-04-25 10:25 | 39.26092 | 3.12797 | 23144 ft | 405 kts | 254° |
| 2026-04-25 10:25 | 39.25276 | 3.09308 | 23146 ft | 405 kts | 254° |
| 2026-04-25 10:26 | 39.24459 | 3.05822 | 23143 ft | 405 kts | 253° |
| 2026-04-25 10:26 | 39.23656 | 3.02394 | 23145 ft | 404 kts | 253° |
| 2026-04-25 10:26 | 39.22836 | 2.98907 | 23114 ft | 404 kts | 253° |
| 2026-04-25 10:26 | 39.22018 | 2.95431 | 22532 ft | 401 kts | 253° |
| 2026-04-25 10:27 | 39.21205 | 2.91982 | 21884 ft | 402 kts | 253° |
| 2026-04-25 10:27 | 39.20405 | 2.88589 | 21529 ft | 396 kts | 253° |
| 2026-04-25 10:27 | 39.19604 | 2.85207 | 20984 ft | 394 kts | 252° |
| 2026-04-25 10:27 | 39.18602 | 2.81920 | 20493 ft | 392 kts | 248° |
| 2026-04-25 10:28 | 39.17572 | 2.78667 | 19932 ft | 392 kts | 248° |
| 2026-04-25 10:28 | 39.16552 | 2.75394 | 19319 ft | 394 kts | 248° |
| 2026-04-25 10:28 | 39.15532 | 2.72100 | 18717 ft | 396 kts | 248° |
| 2026-04-25 10:28 | 39.14523 | 2.68834 | 18084 ft | 398 kts | 249° |
| 2026-04-25 10:29 | 39.13495 | 2.65510 | 17402 ft | 399 kts | 248° |
| 2026-04-25 10:29 | 39.12464 | 2.62180 | 16739 ft | 400 kts | 248° |
| 2026-04-25 10:29 | 39.11433 | 2.58852 | 16100 ft | 400 kts | 248° |
| 2026-04-25 10:29 | 39.10399 | 2.55521 | 15459 ft | 400 kts | 248° |
| 2026-04-25 10:30 | 39.09366 | 2.52193 | 14858 ft | 400 kts | 248° |
| 2026-04-25 10:30 | 39.08344 | 2.48906 | 14266 ft | 399 kts | 248° |
| 2026-04-25 10:30 | 39.07314 | 2.45597 | 13646 ft | 398 kts | 248° |
| 2026-04-25 10:30 | 39.06282 | 2.42288 | 12982 ft | 397 kts | 248° |
| 2026-04-25 10:31 | 39.05252 | 2.38989 | 12331 ft | 396 kts | 248° |
| 2026-04-25 10:31 | 39.04225 | 2.35700 | 11718 ft | 394 kts | 248° |
| 2026-04-25 10:31 | 39.03203 | 2.32434 | 11107 ft | 393 kts | 248° |
| 2026-04-25 10:31 | 39.02184 | 2.29181 | 10503 ft | 391 kts | 248° |
| 2026-04-25 10:32 | 39.01169 | 2.25943 | 9898 ft | 389 kts | 248° |
| 2026-04-25 10:32 | 39.00168 | 2.22758 | 9254 ft | 388 kts | 248° |
| 2026-04-25 10:32 | 38.99156 | 2.19538 | 8613 ft | 386 kts | 248° |
| 2026-04-25 10:32 | 38.98149 | 2.16338 | 7985 ft | 385 kts | 248° |
| 2026-04-25 10:33 | 38.97148 | 2.13159 | 7369 ft | 383 kts | 247° |
| 2026-04-25 10:33 | 38.96146 | 2.09983 | 6752 ft | 382 kts | 247° |
| 2026-04-25 10:33 | 38.95148 | 2.06824 | 6222 ft | 378 kts | 247° |
| 2026-04-25 10:33 | 38.94187 | 2.03782 | 6018 ft | 364 kts | 247° |
| 2026-04-25 10:34 | 38.93253 | 2.00829 | 5786 ft | 352 kts | 247° |
| 2026-04-25 10:34 | 38.92343 | 1.97953 | 5556 ft | 342 kts | 247° |
| 2026-04-25 10:34 | 38.91457 | 1.95160 | 5313 ft | 331 kts | 247° |
| 2026-04-25 10:34 | 38.90650 | 1.92521 | 5107 ft | 311 kts | 252° |
| 2026-04-25 10:35 | 38.90134 | 1.89904 | 4892 ft | 294 kts | 256° |
| 2026-04-25 10:35 | 38.89653 | 1.87420 | 4656 ft | 281 kts | 255° |
| 2026-04-25 10:35 | 38.89167 | 1.84983 | 4381 ft | 280 kts | 255° |
| 2026-04-25 10:35 | 38.88675 | 1.82564 | 4138 ft | 280 kts | 254° |
| 2026-04-25 10:36 | 38.88183 | 1.80178 | 3887 ft | 278 kts | 254° |
| 2026-04-25 10:36 | 38.87686 | 1.77784 | 3632 ft | 274 kts | 254° |
| 2026-04-25 10:36 | 38.87197 | 1.75442 | 3365 ft | 270 kts | 254° |
| 2026-04-25 10:36 | 38.86712 | 1.73122 | 3113 ft | 266 kts | 253° |
| 2026-04-25 10:37 | 38.86242 | 1.70879 | 3046 ft | 253 kts | 253° |
| 2026-04-25 10:37 | 38.85796 | 1.68755 | 3052 ft | 244 kts | 253° |
| 2026-04-25 10:37 | 38.85357 | 1.66669 | 3076 ft | 244 kts | 253° |
| 2026-04-25 10:37 | 38.84914 | 1.64564 | 3010 ft | 244 kts | 253° |
| 2026-04-25 10:38 | 38.84472 | 1.62461 | 3002 ft | 244 kts | 253° |
| 2026-04-25 10:38 | 38.84030 | 1.60355 | 2992 ft | 244 kts | 253° |
| 2026-04-25 10:38 | 38.83573 | 1.58256 | 2993 ft | 245 kts | 253° |
| 2026-04-25 10:38 | 38.83105 | 1.56147 | 3013 ft | 245 kts | 252° |
| 2026-04-25 10:39 | 38.82644 | 1.54065 | 2996 ft | 245 kts | 253° |
| 2026-04-25 10:39 | 38.82178 | 1.51954 | 2994 ft | 245 kts | 252° |
| 2026-04-25 10:39 | 38.81712 | 1.49840 | 3004 ft | 246 kts | 253° |
| 2026-04-25 10:39 | 38.81247 | 1.47735 | 3007 ft | 245 kts | 252° |
| 2026-04-25 10:40 | 38.80785 | 1.45654 | 2994 ft | 246 kts | 253° |
| 2026-04-25 10:40 | 38.80315 | 1.43547 | 2994 ft | 245 kts | 251° |
| 2026-04-25 10:40 | 38.79617 | 1.41565 | 3016 ft | 244 kts | 240° |
| 2026-04-25 10:40 | 38.78809 | 1.39644 | 2987 ft | 243 kts | 239° |
| 2026-04-25 10:41 | 38.78063 | 1.37698 | 2983 ft | 244 kts | 249° |
| 2026-04-25 10:41 | 38.77691 | 1.35598 | 3021 ft | 245 kts | 259° |
| 2026-04-25 10:41 | 38.77380 | 1.33454 | 2996 ft | 244 kts | 258° |
| 2026-04-25 10:41 | 38.77054 | 1.31310 | 3005 ft | 244 kts | 257° |
| 2026-04-25 10:42 | 38.76720 | 1.29176 | 2991 ft | 244 kts | 258° |
| 2026-04-25 10:42 | 38.76380 | 1.27042 | 2981 ft | 244 kts | 257° |
| 2026-04-25 10:42 | 38.76042 | 1.24943 | 2750 ft | 244 kts | 258° |
| 2026-04-25 10:42 | 38.75695 | 1.22802 | 2488 ft | 244 kts | 257° |
| 2026-04-25 10:43 | 38.75349 | 1.20683 | 2218 ft | 241 kts | 257° |
| 2026-04-25 10:43 | 38.75015 | 1.18637 | 2039 ft | 230 kts | 257° |
| 2026-04-25 10:43 | 38.74703 | 1.16725 | 2030 ft | 207 kts | 258° |
| 2026-04-25 10:43 | 38.74417 | 1.14975 | 1998 ft | 199 kts | 258° |
| 2026-04-25 10:44 | 38.74132 | 1.13238 | 2013 ft | 200 kts | 259° |
| 2026-04-25 10:44 | 38.73844 | 1.11479 | 2015 ft | 201 kts | 258° |
| 2026-04-25 10:44 | 38.73554 | 1.09719 | 2491 ft | 201 kts | 259° |
| 2026-04-25 10:44 | 38.73580 | 1.07956 | 3183 ft | 204 kts | 288° |
| 2026-04-25 10:45 | 38.74393 | 1.06559 | 2898 ft | 191 kts | 336° |
| 2026-04-25 10:45 | 38.75626 | 1.06343 | 2949 ft | 178 kts | 19° |
| 2026-04-25 10:45 | 38.76629 | 1.07156 | 3047 ft | 174 kts | 55° |
| 2026-04-25 10:45 | 38.77048 | 1.08582 | 3025 ft | 173 kts | 89° |
| 2026-04-25 10:46 | 38.76856 | 1.10104 | 3042 ft | 175 kts | 103° |
| 2026-04-25 10:46 | 38.76854 | 1.11636 | 2942 ft | 173 kts | 71° |
| 2026-04-25 10:46 | 38.77360 | 1.13044 | 3026 ft | 176 kts | 66° |
| 2026-04-25 10:46 | 38.77884 | 1.14437 | 3067 ft | 169 kts | 66° |
| 2026-04-25 10:47 | 38.78372 | 1.15683 | 3008 ft | 145 kts | 65° |
| 2026-04-25 10:47 | 38.78825 | 1.16815 | 2942 ft | 144 kts | 65° |
| 2026-04-25 10:47 | 38.79280 | 1.17944 | 2893 ft | 144 kts | 65° |
| 2026-04-25 10:47 | 38.79736 | 1.19066 | 2772 ft | 139 kts | 65° |
| 2026-04-25 10:48 | 38.80182 | 1.20157 | 2630 ft | 137 kts | 65° |
| 2026-04-25 10:48 | 38.80629 | 1.21244 | 2465 ft | 138 kts | 65° |
| 2026-04-25 10:48 | 38.81073 | 1.22326 | 2338 ft | 137 kts | 64° |
| 2026-04-25 10:48 | 38.81516 | 1.23395 | 2168 ft | 133 kts | 63° |
| 2026-04-25 10:49 | 38.81950 | 1.24439 | 2033 ft | 133 kts | 64° |
| 2026-04-25 10:49 | 38.82238 | 1.25138 | 1953 ft | 133 kts | 64° |
| 2026-04-25 10:49 | 38.82814 | 1.26525 | 1671 ft | 131 kts | 63° |
| 2026-04-25 10:49 | 38.83236 | 1.27540 | 1542 ft | 131 kts | 64° |
| 2026-04-25 10:50 | 38.83661 | 1.28573 | 1537 ft | 130 kts | 63° |
| 2026-04-25 10:50 | 38.84086 | 1.29592 | 1480 ft | 129 kts | 63° |
| 2026-04-25 10:50 | 38.84500 | 1.30621 | 1272 ft | 130 kts | 62° |
| 2026-04-25 10:50 | 38.84943 | 1.31636 | 896 ft | 131 kts | 63° |
| 2026-04-25 10:51 | 38.85391 | 1.32674 | 471 ft | 133 kts | 63° |
| 2026-04-25 10:51 | 38.85842 | 1.33746 | 407 ft | 138 kts | 65° |
| 2026-04-25 10:51 | 38.86185 | 1.34600 | 256 ft | 132 kts | 65° |
| 2026-04-25 10:51 | 38.86271 | 1.34830 | 221 ft | 132 kts | 66° |
| 2026-04-25 10:52 | 38.86696 | 1.35872 | 63 ft | 131 kts | 63° |
| 2026-04-25 10:52 | 38.87065 | 1.36779 | 31 ft | 92 kts | 62° |
| 2026-04-25 10:52 | 38.87301 | 1.37352 | 33 ft | 50 kts | 62° |
| 2026-04-25 10:52 | 38.87403 | 1.37598 | 34 ft | 21 kts | 62° |
| 2026-04-25 10:53 | 38.87487 | 1.37754 | 35 ft | 21 kts | 49° |
| 2026-04-25 10:53 | 38.87575 | 1.37854 | 35 ft | 13 kts | 28° |
| 2026-04-25 10:53 | 38.87661 | 1.37911 | 38 ft | 13 kts | 3° |
| 2026-04-25 10:53 | 38.87695 | 1.37855 | 44 ft | 8 kts | 254° |
| 2026-04-25 10:54 | 38.87656 | 1.37754 | 42 ft | 18 kts | 242° |
| 2026-04-25 10:54 | 38.87608 | 1.37640 | 44 ft | 26 kts | 242° |
| 2026-04-25 10:54 | 38.87607 | 1.37539 | 47 ft | 7 kts | 332° |
| 2026-04-25 10:54 | 38.87689 | 1.37474 | 51 ft | 15 kts | 311° |
| 2026-04-25 10:55 | 38.87660 | 1.37330 | 52 ft | 23 kts | 242° |
| 2026-04-25 10:55 | 38.87635 | 1.37268 | 50 ft | 29 kts | 242° |
| 2026-04-25 10:55 | 38.87575 | 1.37123 | 50 ft | 19 kts | 243° |
| 2026-04-25 10:55 | 38.87543 | 1.37045 | 49 ft | 5 kts | 262° |
| 2026-04-25 10:56 | 38.87578 | 1.37008 | 51 ft | 2 kts | 332° |
| 2026-04-25 10:56 | 38.87595 | 1.36996 | 51 ft | 0 kts | 331° |